Atlantic Beach, Florida
Current Conditions -  °F | °C
As of 5:52 AM on Monday 20 Oct 2014 (Local Time) from KNRB Reporting Station
Scattered Clouds Scattered Clouds  
Wind Chill: 72°   Ceiling: Unl
Heat Index: 72°   Visibility: 10mi
Dew Point: 63°   Wind: 9mph
Humidity: 73%   Direction: 40°NE
Pressure: 30.04"   Gusts: NA
Location:  30.33°N, 81.4°W
Report Text: KNRB 200952Z 04008KT 10SM SCT050 SCT250 22/17 A3004 RMK AO2 SLP172 T02220172
Loading
Personal Weather Stations






























Interactive Weather Map
Tropical Storm Tracking
New forecast layout! Learn more

10-Day Weather Forecast

Advertisements
Track Severe Weather on mobile